createdAt,value
2022-11-16T00:04:17.145Z,95942.47
2022-11-16T00:09:27.275Z,95929.97
2022-11-16T00:14:32.633Z,95898.16
2022-11-16T00:19:34.965Z,95900.97
2022-11-16T00:24:37.059Z,95921.06
2022-11-16T00:29:39.085Z,95933.00
2022-11-16T00:34:41.318Z,95904.56
2022-11-16T00:39:43.712Z,95859.94
2022-11-16T00:44:48.068Z,95865.66
2022-11-16T00:49:50.233Z,95910.69
2022-11-16T00:54:53.008Z,95889.31
2022-11-16T00:59:55.392Z,95886.50
2022-11-16T01:04:58.731Z,95871.50
2022-11-16T01:10:01.009Z,95840.97
2022-11-16T01:15:04.160Z,95864.72
2022-11-16T01:20:09.421Z,95836.09
2022-11-16T01:25:13.397Z,95862.25
2022-11-16T01:30:17.017Z,95827.78
2022-11-16T01:35:29.200Z,95816.88
2022-11-16T01:40:31.540Z,95801.69
2022-11-16T01:45:39.036Z,95839.38
2022-11-16T01:50:45.610Z,95837.63
2022-11-16T01:55:49.147Z,95820.94
2022-11-16T02:01:24.021Z,95792.69
2022-11-16T02:07:12.586Z,95821.00
2022-11-16T02:12:24.606Z,95828.50
2022-11-16T02:17:51.379Z,95825.63
2022-11-16T02:22:58.821Z,95820.72
2022-11-16T02:28:25.944Z,95816.22
2022-11-16T02:33:34.036Z,95792.91
2022-11-16T02:38:41.020Z,95805.34
2022-11-16T02:43:47.134Z,95814.50
2022-11-16T02:48:53.633Z,95774.63
2022-11-16T02:54:11.876Z,95805.81
2022-11-16T02:59:17.878Z,95749.03
2022-11-16T03:04:32.941Z,95757.31
2022-11-16T03:09:39.298Z,95783.56
2022-11-16T03:14:59.659Z,95755.81
2022-11-16T03:20:06.981Z,95776.59
2022-11-16T03:25:20.359Z,95737.34
2022-11-16T03:30:29.809Z,95758.75
2022-11-16T03:35:42.525Z,95749.13
2022-11-16T03:40:47.811Z,95722.00
2022-11-16T03:45:50.951Z,95723.28
2022-11-16T03:50:53.849Z,95709.53
2022-11-16T03:55:56.649Z,95701.31
2022-11-16T04:00:59.399Z,95707.09
2022-11-16T04:06:22.440Z,95676.97
2022-11-16T04:11:43.303Z,95681.69
2022-11-16T04:17:04.785Z,95678.63
2022-11-16T04:22:36.687Z,95655.59
2022-11-16T04:28:11.411Z,95645.19
2022-11-16T04:33:33.272Z,95623.84
2022-11-16T04:38:36.801Z,95627.31
2022-11-16T04:43:39.566Z,95659.69
2022-11-16T04:48:41.708Z,95615.78
2022-11-16T04:53:45.047Z,95652.09
2022-11-16T04:58:55.393Z,95653.28
2022-11-16T05:03:58.345Z,95625.28
2022-11-16T05:09:03.198Z,95626.09
2022-11-16T05:14:10.476Z,95620.72
2022-11-16T05:19:33.300Z,95655.06
2022-11-16T05:24:37.157Z,95648.56
2022-11-16T05:29:46.520Z,95633.47
2022-11-16T05:34:52.138Z,95647.44
2022-11-16T05:39:55.126Z,95659.78
2022-11-16T05:45:02.362Z,95621.22
2022-11-16T05:50:04.992Z,95659.22
2022-11-16T05:55:15.706Z,95634.22
2022-11-16T06:00:19.733Z,95634.56
2022-11-16T06:05:26.244Z,95647.22
2022-11-16T06:10:30.047Z,95627.47
2022-11-16T06:15:38.409Z,95610.41
2022-11-16T06:20:42.242Z,95632.44
2022-11-16T06:25:45.338Z,95646.50
2022-11-16T06:30:48.929Z,95608.13
2022-11-16T06:35:51.463Z,95610.03
2022-11-16T06:40:59.428Z,95639.81
2022-11-16T06:46:04.554Z,95574.81
2022-11-16T06:51:07.231Z,95630.59
2022-11-16T06:56:13.833Z,95615.53
2022-11-16T07:01:21.237Z,95622.34
2022-11-16T07:06:27.955Z,95593.91
2022-11-16T07:11:31.923Z,95571.13
2022-11-16T07:16:38.346Z,95530.72
2022-11-16T07:21:43.884Z,95506.94
2022-11-16T07:26:51.111Z,95539.47
2022-11-16T07:31:56.958Z,95508.69
2022-11-16T07:37:12.121Z,95528.13
2022-11-16T07:42:15.445Z,95514.09
2022-11-16T07:47:40.132Z,95508.34
2022-11-16T07:53:17.742Z,95516.63
2022-11-16T07:58:21.249Z,95513.16
2022-11-16T08:03:25.011Z,95488.38
2022-11-16T08:08:29.813Z,95458.13
2022-11-16T08:13:34.622Z,95490.31
2022-11-16T08:18:39.093Z,95480.50
2022-11-16T08:23:42.571Z,95455.34
2022-11-16T08:28:47.013Z,95438.69
2022-11-16T08:33:52.118Z,95455.13
2022-11-16T08:38:55.418Z,95436.56
2022-11-16T08:44:00.876Z,95440.06
2022-11-16T08:49:04.757Z,95411.41
2022-11-16T08:54:07.807Z,95402.69
2022-11-16T08:59:12.859Z,95415.00
2022-11-16T09:04:20.985Z,95404.75
2022-11-16T09:09:23.587Z,95392.44
2022-11-16T09:14:27.864Z,95382.81
2022-11-16T09:19:30.075Z,95399.59
2022-11-16T09:24:32.345Z,95383.03
2022-11-16T09:29:34.663Z,95372.69
2022-11-16T09:34:37.180Z,95361.06
2022-11-16T09:39:39.457Z,95360.34
2022-11-16T09:45:00.797Z,95340.00
2022-11-16T09:50:06.126Z,95351.06
2022-11-16T09:55:40.717Z,95367.38
2022-11-16T10:00:50.395Z,95343.47
2022-11-16T10:06:05.930Z,95346.19
2022-11-16T10:11:17.484Z,95330.03
2022-11-16T10:16:34.464Z,95324.72
2022-11-16T10:21:45.557Z,95306.00
2022-11-16T10:26:48.020Z,95320.75
2022-11-16T10:32:08.756Z,95295.63
2022-11-16T10:37:13.473Z,95302.22
2022-11-16T10:42:34.355Z,95299.00
2022-11-16T10:47:42.947Z,95312.53
2022-11-16T10:52:45.243Z,95280.25
2022-11-16T10:57:56.547Z,95282.66
2022-11-16T11:02:58.750Z,95294.34
2022-11-16T11:08:02.769Z,95271.81
2022-11-16T11:13:07.904Z,95283.47
2022-11-16T11:18:19.474Z,95243.38
2022-11-16T11:23:24.462Z,95239.41
2022-11-16T11:28:33.860Z,95257.50
2022-11-16T11:33:39.715Z,95224.16
2022-11-16T11:44:29.349Z,95249.41
2022-11-16T11:49:42.391Z,95212.06
2022-11-16T11:54:49.317Z,95212.56
2022-11-16T11:59:54.642Z,95214.19
2022-11-16T12:05:18.593Z,95251.03
2022-11-16T12:10:32.906Z,95225.81
2022-11-16T12:15:43.605Z,95228.78
2022-11-16T12:20:46.992Z,95233.13
2022-11-16T12:26:02.408Z,95190.84
2022-11-16T12:31:17.726Z,95180.41
2022-11-16T12:36:45.281Z,95204.56
2022-11-16T12:41:53.558Z,95211.47
2022-11-16T12:47:12.105Z,95209.41
2022-11-16T12:52:49.721Z,95198.94
2022-11-16T12:58:03.618Z,95205.25
2022-11-16T13:03:33.890Z,95190.28
2022-11-16T13:08:59.220Z,95195.50
2022-11-16T13:14:05.581Z,95195.47
2022-11-16T13:19:11.975Z,95179.81
2022-11-16T13:24:44.930Z,95203.06
2022-11-16T13:30:11.232Z,95148.50
2022-11-16T13:35:16.048Z,95206.31
2022-11-16T13:40:26.270Z,95209.91
2022-11-16T13:45:38.387Z,95198.81
2022-11-16T13:50:49.569Z,95172.91
2022-11-16T13:56:01.335Z,95196.16
2022-11-16T14:01:15.655Z,95190.34
2022-11-16T14:06:26.180Z,95216.75
2022-11-16T14:11:40.623Z,95212.75
2022-11-16T14:16:46.371Z,95191.31
2022-11-16T14:21:57.351Z,95211.81
2022-11-16T14:27:10.846Z,95204.63
2022-11-16T14:32:21.911Z,95201.06
2022-11-16T14:37:30.086Z,95198.94
2022-11-16T14:42:48.356Z,95199.56
2022-11-16T14:48:17.542Z,95203.78
2022-11-16T14:53:20.557Z,95205.28
2022-11-16T14:58:23.917Z,95172.72
2022-11-16T15:03:30.362Z,95213.22
2022-11-16T15:08:47.547Z,95174.63
2022-11-16T15:13:54.638Z,95162.38
2022-11-16T15:19:04.928Z,95200.13
2022-11-16T15:24:29.439Z,95209.78
2022-11-16T15:29:32.173Z,95230.69
2022-11-16T15:34:34.607Z,95195.03
2022-11-16T15:39:37.224Z,95226.47
2022-11-16T15:44:39.754Z,95208.78
2022-11-16T15:49:44.240Z,95240.50
2022-11-16T15:55:03.951Z,95176.69
2022-11-16T16:00:06.827Z,95225.19
2022-11-16T16:05:32.520Z,95209.59
2022-11-16T16:10:34.829Z,95204.56
2022-11-16T16:15:37.105Z,95238.47
2022-11-16T16:20:40.693Z,95231.03
2022-11-16T16:25:50.342Z,95199.19
2022-11-16T16:30:59.741Z,95221.81
2022-11-16T16:36:08.839Z,95191.69
2022-11-16T16:41:24.458Z,95225.84
2022-11-16T16:46:27.695Z,95201.78
2022-11-16T16:51:29.845Z,95172.19
2022-11-16T16:56:32.088Z,95198.28
2022-11-16T17:01:34.410Z,95188.19
2022-11-16T17:06:36.800Z,95228.63
2022-11-16T17:11:39.455Z,95181.81
2022-11-16T17:16:41.932Z,95218.00
2022-11-16T17:21:47.014Z,95212.00
2022-11-16T17:26:51.402Z,95197.66
2022-11-16T17:31:55.010Z,95236.91
2022-11-16T17:36:57.178Z,95195.31
2022-11-16T17:42:00.447Z,95161.69
2022-11-16T17:47:02.975Z,95208.22
2022-11-16T17:52:05.285Z,95220.22
2022-11-16T17:57:07.418Z,95220.38
2022-11-16T18:02:27.709Z,95212.78
2022-11-16T18:07:30.651Z,95191.44
2022-11-16T18:12:32.874Z,95197.09
2022-11-16T18:17:36.504Z,95231.59
2022-11-16T18:22:38.873Z,95205.00
2022-11-16T18:27:41.119Z,95208.94
2022-11-16T18:32:43.237Z,95221.44
2022-11-16T18:37:45.316Z,95186.28
2022-11-16T18:42:47.678Z,95176.16
2022-11-16T18:47:49.841Z,95201.13
2022-11-16T18:52:51.914Z,95184.09
2022-11-16T18:57:54.247Z,95196.66
2022-11-16T19:02:56.383Z,95155.97
2022-11-16T19:07:58.778Z,95179.56
2022-11-16T19:13:01.118Z,95168.03
2022-11-16T19:18:22.302Z,95191.84
2022-11-16T19:23:24.933Z,95192.28
2022-11-16T19:28:30.965Z,95191.44
2022-11-16T19:33:33.728Z,95194.09
2022-11-16T19:38:36.526Z,95180.03
2022-11-16T19:43:39.101Z,95160.09
2022-11-16T19:48:41.510Z,95158.28
2022-11-16T19:53:44.019Z,95200.31
2022-11-16T19:58:46.942Z,95196.00
2022-11-16T20:03:49.974Z,95156.28
2022-11-16T20:08:54.092Z,95163.91
2022-11-16T20:13:58.404Z,95187.00
2022-11-16T20:19:00.778Z,95165.59
2022-11-16T20:24:06.845Z,95182.88
2022-11-16T20:29:14.802Z,95144.19
2022-11-16T20:34:18.724Z,95172.97
2022-11-16T20:39:21.269Z,95154.66
2022-11-16T20:44:23.510Z,95164.44
2022-11-16T20:49:25.740Z,95146.34
2022-11-16T20:54:27.883Z,95139.16
2022-11-16T20:59:30.006Z,95146.97
2022-11-16T21:04:32.180Z,95170.50
2022-11-16T21:09:54.308Z,95150.72
2022-11-16T21:14:56.565Z,95128.59
2022-11-16T21:20:25.427Z,95140.34
2022-11-16T21:25:21.231Z,95166.06
2022-11-16T21:30:23.409Z,95126.56
2022-11-16T21:35:27.227Z,95157.50
2022-11-16T21:40:29.498Z,95156.25
2022-11-16T21:45:31.630Z,95160.47
2022-11-16T21:50:33.712Z,95173.63
2022-11-16T21:55:35.877Z,95166.34
2022-11-16T22:00:38.105Z,95150.47
2022-11-16T22:06:15.857Z,95171.03
2022-11-16T22:11:22.372Z,95174.25
2022-11-16T22:16:24.576Z,95174.25
2022-11-16T22:21:26.802Z,95132.03
2022-11-16T22:26:28.994Z,95140.56
2022-11-16T22:31:31.200Z,95118.88
2022-11-16T22:36:33.497Z,95142.56
2022-11-16T22:41:35.782Z,95155.63
2022-11-16T22:46:37.975Z,95136.88
2022-11-16T22:51:40.066Z,95130.81
2022-11-16T22:56:43.147Z,95155.25
2022-11-16T23:01:45.428Z,95114.28
2022-11-16T23:06:47.526Z,95114.59
2022-11-16T23:12:07.775Z,95120.97
2022-11-16T23:17:09.999Z,95112.69
2022-11-16T23:22:36.903Z,95125.22
2022-11-16T23:27:54.159Z,95114.59
2022-11-16T23:32:56.399Z,95094.53
2022-11-16T23:38:00.618Z,95105.91
2022-11-16T23:43:23.235Z,95078.75
2022-11-16T23:48:25.456Z,95071.34
2022-11-16T23:53:27.567Z,95055.47
2022-11-16T23:58:29.740Z,95041.34
